sensor_id;sensor_type;location;lat;lon;timestamp;pressure;altitude;pressure_sealevel;temperature;humidity
55456;BME280;63021;52.836;6.376;2023-05-24T00:01:21;102500.13;;;8.87;65.65
55456;BME280;63021;52.836;6.376;2023-05-24T00:03:53;102494.22;;;8.82;65.93
55456;BME280;63021;52.836;6.376;2023-05-24T00:06:23;102494.16;;;8.83;65.44
55456;BME280;63021;52.836;6.376;2023-05-24T00:08:50;102499.53;;;8.82;65.47
55456;BME280;63021;52.836;6.376;2023-05-24T00:11:16;102496.03;;;8.81;65.76
55456;BME280;63021;52.836;6.376;2023-05-24T00:13:41;102501.34;;;8.81;65.82
55456;BME280;63021;52.836;6.376;2023-05-24T00:16:07;102486.66;;;8.76;65.51
55456;BME280;63021;52.836;6.376;2023-05-24T00:18:32;102491.13;;;8.75;65.69
55456;BME280;63021;52.836;6.376;2023-05-24T00:20:57;102494.72;;;8.74;65.60
55456;BME280;63021;52.836;6.376;2023-05-24T00:23:24;102490.34;;;8.73;65.28
55456;BME280;63021;52.836;6.376;2023-05-24T00:25:50;102485.03;;;8.73;66.00
55456;BME280;63021;52.836;6.376;2023-05-24T00:28:15;102485.03;;;8.73;65.65
55456;BME280;63021;52.836;6.376;2023-05-24T00:30:41;102484.28;;;8.71;66.01
55456;BME280;63021;52.836;6.376;2023-05-24T00:33:06;102486.94;;;8.71;66.00
55456;BME280;63021;52.836;6.376;2023-05-24T00:35:32;102483.50;;;8.69;66.04
55456;BME280;63021;52.836;6.376;2023-05-24T00:37:57;102487.13;;;8.68;66.79
55456;BME280;63021;52.836;6.376;2023-05-24T00:40:23;102484.47;;;8.68;66.64
55456;BME280;63021;52.836;6.376;2023-05-24T00:42:48;102474.69;;;8.69;66.70
55456;BME280;63021;52.836;6.376;2023-05-24T00:45:14;102475.63;;;8.67;65.74
55456;BME280;63021;52.836;6.376;2023-05-24T00:47:40;102474.78;;;8.67;66.47
55456;BME280;63021;52.836;6.376;2023-05-24T00:50:07;102481.13;;;8.64;66.38
55456;BME280;63021;52.836;6.376;2023-05-24T00:52:35;102474.16;;;8.63;66.06
55456;BME280;63021;52.836;6.376;2023-05-24T00:55:01;102476.03;;;8.61;67.07
55456;BME280;63021;52.836;6.376;2023-05-24T00:57:26;102477.75;;;8.62;66.88
55456;BME280;63021;52.836;6.376;2023-05-24T00:59:54;102487.50;;;8.62;66.71
55456;BME280;63021;52.836;6.376;2023-05-24T01:02:20;102491.13;;;8.61;66.46
55456;BME280;63021;52.836;6.376;2023-05-24T01:04:46;102490.34;;;8.59;66.97
55456;BME280;63021;52.836;6.376;2023-05-24T01:14:52;102483.34;;;8.58;67.30
55456;BME280;63021;52.836;6.376;2023-05-24T01:17:45;102473.66;;;8.57;67.54
55456;BME280;63021;52.836;6.376;2023-05-24T01:20:13;102478.97;;;8.57;66.75
55456;BME280;63021;52.836;6.376;2023-05-24T01:25:26;102477.34;;;8.54;67.36
55456;BME280;63021;52.836;6.376;2023-05-24T01:27:57;102479.16;;;8.54;67.55
55456;BME280;63021;52.836;6.376;2023-05-24T01:30:25;102479.91;;;8.56;67.46
55456;BME280;63021;52.836;6.376;2023-05-24T01:32:51;102477.25;;;8.56;67.86
55456;BME280;63021;52.836;6.376;2023-05-24T01:35:17;102472.03;;;8.54;67.65
55456;BME280;63021;52.836;6.376;2023-05-24T01:37:43;102471.00;;;8.57;68.33
55456;BME280;63021;52.836;6.376;2023-05-24T01:40:09;102463.97;;;8.56;68.06
55456;BME280;63021;52.836;6.376;2023-05-24T01:50:25;102456.94;;;8.55;68.48
55456;BME280;63021;52.836;6.376;2023-05-24T01:52:54;102452.63;;;8.54;68.53
55456;BME280;63021;52.836;6.376;2023-05-24T01:55:24;102456.13;;;8.54;68.35
55456;BME280;63021;52.836;6.376;2023-05-24T01:57:53;102455.19;;;8.55;68.42
55456;BME280;63021;52.836;6.376;2023-05-24T02:00:23;102450.91;;;8.53;68.61
55456;BME280;63021;52.836;6.376;2023-05-24T02:02:49;102454.13;;;8.58;68.63
55456;BME280;63021;52.836;6.376;2023-05-24T02:05:15;102452.41;;;8.57;67.71
55456;BME280;63021;52.836;6.376;2023-05-24T02:07:40;102446.91;;;8.60;68.48
55456;BME280;63021;52.836;6.376;2023-05-24T02:10:06;102438.97;;;8.60;68.41
55456;BME280;63021;52.836;6.376;2023-05-24T02:12:31;102440.78;;;8.59;68.20
55456;BME280;63021;52.836;6.376;2023-05-24T02:14:57;102438.22;;;8.58;68.63
55456;BME280;63021;52.836;6.376;2023-05-24T02:17:22;102437.44;;;8.56;68.16
55456;BME280;63021;52.836;6.376;2023-05-24T02:19:51;102442.75;;;8.56;68.79
55456;BME280;63021;52.836;6.376;2023-05-24T02:22:16;102433.16;;;8.53;68.83
55456;BME280;63021;52.836;6.376;2023-05-24T02:24:42;102441.22;;;8.52;68.22
55456;BME280;63021;52.836;6.376;2023-05-24T02:27:07;102443.03;;;8.51;68.89
55456;BME280;63021;52.836;6.376;2023-05-24T02:29:33;102443.97;;;8.50;68.06
55456;BME280;63021;52.836;6.376;2023-05-24T02:31:58;102445.00;;;8.47;68.88
55456;BME280;63021;52.836;6.376;2023-05-24T02:34:23;102440.66;;;8.46;69.09
55456;BME280;63021;52.836;6.376;2023-05-24T02:36:50;102447.06;;;8.42;68.92
55456;BME280;63021;52.836;6.376;2023-05-24T02:39:15;102445.25;;;8.43;68.59
55456;BME280;63021;52.836;6.376;2023-05-24T02:41:41;102435.59;;;8.42;68.61
55456;BME280;63021;52.836;6.376;2023-05-24T02:44:07;102432.09;;;8.41;68.73
55456;BME280;63021;52.836;6.376;2023-05-24T02:46:32;102442.72;;;8.41;68.51
55456;BME280;63021;52.836;6.376;2023-05-24T02:48:58;102433.91;;;8.41;68.34
55456;BME280;63021;52.836;6.376;2023-05-24T02:51:23;102438.34;;;8.40;68.95
55456;BME280;63021;52.836;6.376;2023-05-24T02:53:49;102439.31;;;8.39;69.04
55456;BME280;63021;52.836;6.376;2023-05-24T02:56:14;102442.91;;;8.38;68.45
55456;BME280;63021;52.836;6.376;2023-05-24T02:58:42;102440.34;;;8.37;68.45
55456;BME280;63021;52.836;6.376;2023-05-24T03:01:09;102432.47;;;8.35;68.47
55456;BME280;63021;52.836;6.376;2023-05-24T03:03:37;102439.56;;;8.35;68.75
55456;BME280;63021;52.836;6.376;2023-05-24T03:06:02;102431.69;;;8.33;69.15
55456;BME280;63021;52.836;6.376;2023-05-24T03:08:28;102437.97;;;8.32;69.21
55456;BME280;63021;52.836;6.376;2023-05-24T03:10:53;102440.81;;;8.29;69.13
55456;BME280;63021;52.836;6.376;2023-05-24T03:13:18;102436.34;;;8.29;69.20
55456;BME280;63021;52.836;6.376;2023-05-24T03:15:44;102429.53;;;8.25;69.39
55456;BME280;63021;52.836;6.376;2023-05-24T03:18:10;102434.63;;;8.28;68.86
55456;BME280;63021;52.836;6.376;2023-05-24T03:20:36;102433.00;;;8.26;68.87
55456;BME280;63021;52.836;6.376;2023-05-24T03:23:01;102439.28;;;8.25;69.32
55456;BME280;63021;52.836;6.376;2023-05-24T03:25:35;102436.72;;;8.23;69.33
55456;BME280;63021;52.836;6.376;2023-05-24T03:28:01;102435.75;;;8.24;69.00
55456;BME280;63021;52.836;6.376;2023-05-24T03:30:27;102437.56;;;8.24;69.43
55456;BME280;63021;52.836;6.376;2023-05-24T03:32:53;102433.19;;;8.23;69.00
55456;BME280;63021;52.836;6.376;2023-05-24T03:35:18;102431.59;;;8.20;69.60
55456;BME280;63021;52.836;6.376;2023-05-24T03:37:44;102440.50;;;8.19;69.73
55456;BME280;63021;52.836;6.376;2023-05-24T03:40:10;102439.72;;;8.17;69.31
55456;BME280;63021;52.836;6.376;2023-05-24T03:42:35;102446.84;;;8.17;69.39
55456;BME280;63021;52.836;6.376;2023-05-24T03:45:01;102446.06;;;8.14;70.10
55456;BME280;63021;52.836;6.376;2023-05-24T03:47:26;102439.91;;;8.14;70.26
55456;BME280;63021;52.836;6.376;2023-05-24T03:49:53;102444.19;;;8.17;69.96
55456;BME280;63021;52.836;6.376;2023-05-24T03:52:18;102438.03;;;8.16;69.88
55456;BME280;63021;52.836;6.376;2023-05-24T03:54:43;102435.28;;;8.18;69.95
55456;BME280;63021;52.836;6.376;2023-05-24T03:57:10;102438.78;;;8.18;69.13
55456;BME280;63021;52.836;6.376;2023-05-24T03:59:35;102433.59;;;8.17;70.22
55456;BME280;63021;52.836;6.376;2023-05-24T04:02:01;102437.16;;;8.15;70.25
55456;BME280;63021;52.836;6.376;2023-05-24T04:04:26;102440.69;;;8.16;70.64
55456;BME280;63021;52.836;6.376;2023-05-24T04:06:51;102444.19;;;8.17;70.05
55456;BME280;63021;52.836;6.376;2023-05-24T04:09:18;102445.91;;;8.18;70.29
55456;BME280;63021;52.836;6.376;2023-05-24T04:11:43;102444.94;;;8.19;70.28
55456;BME280;63021;52.836;6.376;2023-05-24T04:14:09;102442.28;;;8.19;70.30
55456;BME280;63021;52.836;6.376;2023-05-24T04:16:34;102444.94;;;8.19;70.04
55456;BME280;63021;52.836;6.376;2023-05-24T04:19:00;102442.28;;;8.19;70.97
55456;BME280;63021;52.836;6.376;2023-05-24T04:21:28;102448.47;;;8.19;70.45
55456;BME280;63021;52.836;6.376;2023-05-24T04:23:53;102447.59;;;8.19;70.02
55456;BME280;63021;52.836;6.376;2023-05-24T04:26:20;102450.25;;;8.19;70.20
55456;BME280;63021;52.836;6.376;2023-05-24T04:28:46;102458.97;;;8.21;70.76
55456;BME280;63021;52.836;6.376;2023-05-24T04:31:13;102445.72;;;8.21;70.85
55456;BME280;63021;52.836;6.376;2023-05-24T04:33:40;102449.22;;;8.21;70.98
55456;BME280;63021;52.836;6.376;2023-05-24T04:36:06;102441.25;;;8.21;70.57
55456;BME280;63021;52.836;6.376;2023-05-24T04:38:32;102433.28;;;8.21;70.74
55456;BME280;63021;52.836;6.376;2023-05-24T04:40:59;102438.59;;;8.21;70.96
55456;BME280;63021;52.836;6.376;2023-05-24T04:43:24;102435.84;;;8.23;71.25
55456;BME280;63021;52.836;6.376;2023-05-24T04:45:53;102431.53;;;8.22;70.68
55456;BME280;63021;52.836;6.376;2023-05-24T04:48:20;102434.06;;;8.23;71.74
55456;BME280;63021;52.836;6.376;2023-05-24T04:50:51;102430.44;;;8.24;70.88
55456;BME280;63021;52.836;6.376;2023-05-24T04:53:17;102438.31;;;8.26;71.27
55456;BME280;63021;52.836;6.376;2023-05-24T04:55:42;102440.88;;;8.27;71.68
55456;BME280;63021;52.836;6.376;2023-05-24T04:58:08;102447.91;;;8.28;71.11
55456;BME280;63021;52.836;6.376;2023-05-24T05:00:33;102446.97;;;8.29;71.72
55456;BME280;63021;52.836;6.376;2023-05-24T05:02:58;102447.72;;;8.31;71.27
55456;BME280;63021;52.836;6.376;2023-05-24T05:05:24;102450.16;;;8.35;71.15
55456;BME280;63021;52.836;6.376;2023-05-24T05:07:49;102460.53;;;8.39;71.91
55456;BME280;63021;52.836;6.376;2023-05-24T05:10:15;102461.19;;;8.43;71.77
55456;BME280;63021;52.836;6.376;2023-05-24T05:12:41;102455.63;;;8.47;71.90
55456;BME280;63021;52.836;6.376;2023-05-24T05:15:07;102458.97;;;8.51;71.22
55456;BME280;63021;52.836;6.376;2023-05-24T05:17:32;102463.97;;;8.56;71.23
55456;BME280;63021;52.836;6.376;2023-05-24T05:19:58;102464.66;;;8.59;71.83
55456;BME280;63021;52.836;6.376;2023-05-24T05:22:23;102466.94;;;8.65;71.33
55456;BME280;63021;52.836;6.376;2023-05-24T05:24:48;102465.69;;;8.71;72.44
55456;BME280;63021;52.836;6.376;2023-05-24T05:27:14;102466.25;;;8.76;72.11
55456;BME280;63021;52.836;6.376;2023-05-24T05:29:39;102458.75;;;8.83;71.32
55456;BME280;63021;52.836;6.376;2023-05-24T05:32:05;102471.75;;;8.88;72.02
55456;BME280;63021;52.836;6.376;2023-05-24T05:34:31;102468.81;;;8.92;71.50
55456;BME280;63021;52.836;6.376;2023-05-24T05:36:56;102476.41;;;8.98;72.23
55456;BME280;63021;52.836;6.376;2023-05-24T05:39:21;102478.75;;;9.03;71.27
55456;BME280;63021;52.836;6.376;2023-05-24T05:41:47;102469.66;;;9.07;71.32
55456;BME280;63021;52.836;6.376;2023-05-24T05:44:12;102470.13;;;9.14;72.32
55456;BME280;63021;52.836;6.376;2023-05-24T05:46:38;102482.19;;;9.19;71.32
55456;BME280;63021;52.836;6.376;2023-05-24T05:49:04;102479.22;;;9.24;71.08
55456;BME280;63021;52.836;6.376;2023-05-24T05:51:30;102485.94;;;9.30;72.36
55456;BME280;63021;52.836;6.376;2023-05-24T05:53:56;102487.25;;;9.37;71.83
55456;BME280;63021;52.836;6.376;2023-05-24T05:56:21;102485.25;;;9.41;72.20
55456;BME280;63021;52.836;6.376;2023-05-24T05:58:46;102473.47;;;9.45;72.12
55456;BME280;63021;52.836;6.376;2023-05-24T06:01:12;102480.97;;;9.52;71.48
55456;BME280;63021;52.836;6.376;2023-05-24T06:03:37;102487.59;;;9.60;71.04
55456;BME280;63021;52.836;6.376;2023-05-24T06:06:03;102484.50;;;9.66;71.79
55456;BME280;63021;52.836;6.376;2023-05-24T06:08:28;102483.25;;;9.71;71.90
55456;BME280;63021;52.836;6.376;2023-05-24T06:10:59;102487.41;;;9.76;71.63
55456;BME280;63021;52.836;6.376;2023-05-24T06:13:24;102479.88;;;9.82;71.62
55456;BME280;63021;52.836;6.376;2023-05-24T06:15:52;102488.19;;;9.91;71.79
55456;BME280;63021;52.836;6.376;2023-05-24T06:18:17;102473.53;;;9.98;71.11
55456;BME280;63021;52.836;6.376;2023-05-24T06:20:43;102478.25;;;10.07;71.66
55456;BME280;63021;52.836;6.376;2023-05-24T06:23:08;102479.53;;;10.14;71.40
55456;BME280;63021;52.836;6.376;2023-05-24T06:25:34;102479.84;;;10.22;71.78
55456;BME280;63021;52.836;6.376;2023-05-24T06:27:59;102479.25;;;10.32;71.71
55456;BME280;63021;52.836;6.376;2023-05-24T06:30:25;102478.53;;;10.43;71.42
55456;BME280;63021;52.836;6.376;2023-05-24T06:32:50;102484.91;;;10.53;71.38
55456;BME280;63021;52.836;6.376;2023-05-24T06:35:16;102484.41;;;10.61;70.93
55456;BME280;63021;52.836;6.376;2023-05-24T06:37:41;102491.00;;;10.68;70.84
55456;BME280;63021;52.836;6.376;2023-05-24T06:40:07;102487.78;;;10.75;70.45
55456;BME280;63021;52.836;6.376;2023-05-24T06:42:37;102480.22;;;10.82;70.65
55456;BME280;63021;52.836;6.376;2023-05-24T06:45:03;102475.94;;;10.92;70.67
55456;BME280;63021;52.836;6.376;2023-05-24T06:47:28;102469.09;;;11.01;70.72
55456;BME280;63021;52.836;6.376;2023-05-24T06:49:54;102480.06;;;11.09;70.20
55456;BME280;63021;52.836;6.376;2023-05-24T06:52:19;102479.63;;;11.16;69.90
55456;BME280;63021;52.836;6.376;2023-05-24T06:54:45;102488.88;;;11.23;70.08
55456;BME280;63021;52.836;6.376;2023-05-24T06:57:10;102483.97;;;11.30;70.00
55456;BME280;63021;52.836;6.376;2023-05-24T06:59:36;102476.28;;;11.38;69.73
55456;BME280;63021;52.836;6.376;2023-05-24T07:02:01;102479.84;;;11.50;69.46
55456;BME280;63021;52.836;6.376;2023-05-24T07:04:27;102473.59;;;11.62;69.24
55456;BME280;63021;52.836;6.376;2023-05-24T07:06:53;102476.53;;;11.70;69.09
55456;BME280;63021;52.836;6.376;2023-05-24T07:09:18;102479.38;;;11.80;69.07
55456;BME280;63021;52.836;6.376;2023-05-24T07:11:44;102488.28;;;11.92;68.84
55456;BME280;63021;52.836;6.376;2023-05-24T07:14:09;102488.59;;;12.00;68.91
55456;BME280;63021;52.836;6.376;2023-05-24T07:16:35;102485.56;;;12.05;67.58
55456;BME280;63021;52.836;6.376;2023-05-24T07:19:01;102486.31;;;12.07;67.08
55456;BME280;63021;52.836;6.376;2023-05-24T07:21:27;102489.81;;;12.07;66.50
55456;BME280;63021;52.836;6.376;2023-05-24T07:23:52;102494.31;;;12.07;66.05
55456;BME280;63021;52.836;6.376;2023-05-24T07:26:17;102496.88;;;12.08;65.75
55456;BME280;63021;52.836;6.376;2023-05-24T07:28:43;102492.25;;;12.10;65.46
55456;BME280;63021;52.836;6.376;2023-05-24T07:31:09;102486.78;;;12.12;65.66
55456;BME280;63021;52.836;6.376;2023-05-24T07:33:37;102493.59;;;12.16;65.04
55456;BME280;63021;52.836;6.376;2023-05-24T07:36:06;102490.09;;;12.16;64.51
55456;BME280;63021;52.836;6.376;2023-05-24T07:38:33;102490.56;;;12.21;64.71
55456;BME280;63021;52.836;6.376;2023-05-24T07:41:00;102497.28;;;12.26;64.61
55456;BME280;63021;52.836;6.376;2023-05-24T07:43:26;102495.13;;;12.32;64.33
55456;BME280;63021;52.836;6.376;2023-05-24T07:45:51;102499.25;;;12.36;64.21
55456;BME280;63021;52.836;6.376;2023-05-24T07:48:21;102497.19;;;12.39;63.88
55456;BME280;63021;52.836;6.376;2023-05-24T07:50:50;102494.16;;;12.44;64.43
55456;BME280;63021;52.836;6.376;2023-05-24T07:53:17;102499.28;;;12.47;63.87
55456;BME280;63021;52.836;6.376;2023-05-24T07:55:42;102496.97;;;12.54;64.29
55456;BME280;63021;52.836;6.376;2023-05-24T07:58:11;102496.13;;;12.64;64.84
55456;BME280;63021;52.836;6.376;2023-05-24T08:00:36;102491.66;;;12.76;64.72
55456;BME280;63021;52.836;6.376;2023-05-24T08:03:02;102492.63;;;12.87;63.91
55456;BME280;63021;52.836;6.376;2023-05-24T08:05:29;102504.53;;;12.94;63.20
55456;BME280;63021;52.836;6.376;2023-05-24T08:07:56;102503.19;;;12.99;62.95
55456;BME280;63021;52.836;6.376;2023-05-24T08:10:21;102504.03;;;13.00;61.55
55456;BME280;63021;52.836;6.376;2023-05-24T08:12:47;102500.50;;;12.99;61.00
55456;BME280;63021;52.836;6.376;2023-05-24T08:15:15;102498.81;;;12.98;60.89
55456;BME280;63021;52.836;6.376;2023-05-24T08:17:41;102505.13;;;12.97;61.32
55456;BME280;63021;52.836;6.376;2023-05-24T08:20:07;102505.25;;;12.96;60.08
55456;BME280;63021;52.836;6.376;2023-05-24T08:22:40;102501.00;;;12.93;60.51
55456;BME280;63021;52.836;6.376;2023-05-24T08:25:05;102500.03;;;12.94;60.44
55456;BME280;63021;52.836;6.376;2023-05-24T08:27:31;102502.59;;;12.96;60.35
55456;BME280;63021;52.836;6.376;2023-05-24T08:29:57;102510.25;;;13.00;60.02
55456;BME280;63021;52.836;6.376;2023-05-24T08:32:23;102514.13;;;13.08;60.45
55456;BME280;63021;52.836;6.376;2023-05-24T08:34:48;102512.91;;;13.12;60.09
55456;BME280;63021;52.836;6.376;2023-05-24T08:37:14;102526.75;;;13.17;59.71
55456;BME280;63021;52.836;6.376;2023-05-24T08:39:43;102515.78;;;13.20;59.64
55456;BME280;63021;52.836;6.376;2023-05-24T08:42:09;102518.25;;;13.23;59.40
55456;BME280;63021;52.836;6.376;2023-05-24T08:44:40;102510.34;;;13.22;58.44
55456;BME280;63021;52.836;6.376;2023-05-24T08:47:09;102509.63;;;13.20;59.04
55456;BME280;63021;52.836;6.376;2023-05-24T08:49:35;102509.47;;;13.21;58.90
55456;BME280;63021;52.836;6.376;2023-05-24T08:52:01;102506.09;;;13.30;58.87
55456;BME280;63021;52.836;6.376;2023-05-24T08:54:28;102512.28;;;13.42;58.85
55456;BME280;63021;52.836;6.376;2023-05-24T08:56:54;102517.38;;;13.57;59.38
55456;BME280;63021;52.836;6.376;2023-05-24T08:59:20;102517.34;;;13.68;58.84
55456;BME280;63021;52.836;6.376;2023-05-24T09:01:52;102505.16;;;13.75;58.29
55456;BME280;63021;52.836;6.376;2023-05-24T09:04:18;102509.13;;;13.81;57.40
55456;BME280;63021;52.836;6.376;2023-05-24T09:06:45;102509.59;;;13.86;58.62
55456;BME280;63021;52.836;6.376;2023-05-24T09:09:13;102517.00;;;13.94;57.97
55456;BME280;63021;52.836;6.376;2023-05-24T09:11:43;102512.31;;;14.07;57.62
55456;BME280;63021;52.836;6.376;2023-05-24T09:14:09;102516.16;;;14.14;57.10
55456;BME280;63021;52.836;6.376;2023-05-24T09:16:35;102513.63;;;14.13;56.18
55456;BME280;63021;52.836;6.376;2023-05-24T09:19:00;102521.78;;;14.11;56.41
55456;BME280;63021;52.836;6.376;2023-05-24T09:21:27;102520.06;;;14.10;56.11
55456;BME280;63021;52.836;6.376;2023-05-24T09:23:53;102525.44;;;14.10;56.42
55456;BME280;63021;52.836;6.376;2023-05-24T09:26:19;102522.75;;;14.10;56.00
55456;BME280;63021;52.836;6.376;2023-05-24T09:28:46;102523.38;;;14.14;56.07
55456;BME280;63021;52.836;6.376;2023-05-24T09:31:11;102533.41;;;14.21;56.71
55456;BME280;63021;52.836;6.376;2023-05-24T09:33:38;102525.00;;;14.26;56.13
55456;BME280;63021;52.836;6.376;2023-05-24T09:36:04;102528.13;;;14.31;55.80
55456;BME280;63021;52.836;6.376;2023-05-24T09:38:31;102526.16;;;14.33;55.80
55456;BME280;63021;52.836;6.376;2023-05-24T09:41:04;102521.06;;;14.30;55.15
55456;BME280;63021;52.836;6.376;2023-05-24T09:43:31;102519.38;;;14.29;55.15
55456;BME280;63021;52.836;6.376;2023-05-24T09:46:01;102524.59;;;14.31;55.29
55456;BME280;63021;52.836;6.376;2023-05-24T09:48:28;102521.34;;;14.27;54.30
55456;BME280;63021;52.836;6.376;2023-05-24T09:51:06;102514.41;;;14.25;54.89
55456;BME280;63021;52.836;6.376;2023-05-24T09:53:35;102521.00;;;14.20;54.71
55456;BME280;63021;52.836;6.376;2023-05-24T09:56:05;102507.75;;;14.19;54.80
55456;BME280;63021;52.836;6.376;2023-05-24T09:58:33;102503.97;;;14.21;55.02
55456;BME280;63021;52.836;6.376;2023-05-24T10:01:09;102506.72;;;14.31;54.75
55456;BME280;63021;52.836;6.376;2023-05-24T10:06:18;102502.38;;;14.61;54.53
55456;BME280;63021;52.836;6.376;2023-05-24T10:08:46;102504.81;;;14.64;54.23
55456;BME280;63021;52.836;6.376;2023-05-24T10:11:12;102504.31;;;14.59;53.47
55456;BME280;63021;52.836;6.376;2023-05-24T10:13:38;102499.50;;;14.53;53.38
55456;BME280;63021;52.836;6.376;2023-05-24T10:16:03;102500.34;;;14.53;54.16
55456;BME280;63021;52.836;6.376;2023-05-24T10:18:29;102498.41;;;14.55;53.54
55456;BME280;63021;52.836;6.376;2023-05-24T10:20:55;102503.34;;;14.60;53.89
55456;BME280;63021;52.836;6.376;2023-05-24T10:23:25;102488.06;;;14.72;53.89
55456;BME280;63021;52.836;6.376;2023-05-24T10:26:03;102501.25;;;14.85;53.26
55456;BME280;63021;52.836;6.376;2023-05-24T10:28:35;102499.72;;;14.92;54.00
55456;BME280;63021;52.836;6.376;2023-05-24T10:31:16;102501.06;;;15.07;53.97
55456;BME280;63021;52.836;6.376;2023-05-24T10:33:43;102502.06;;;15.16;53.05
55456;BME280;63021;52.836;6.376;2023-05-24T10:36:12;102498.94;;;15.11;53.03
55456;BME280;63021;52.836;6.376;2023-05-24T10:38:39;102505.69;;;15.05;53.09
55456;BME280;63021;52.836;6.376;2023-05-24T10:41:05;102502.91;;;15.07;53.67
55456;BME280;63021;52.836;6.376;2023-05-24T10:43:36;102498.53;;;15.16;54.32
55456;BME280;63021;52.836;6.376;2023-05-24T10:46:02;102497.56;;;15.27;53.61
55456;BME280;63021;52.836;6.376;2023-05-24T10:50:54;102499.41;;;15.26;52.04
55456;BME280;63021;52.836;6.376;2023-05-24T10:53:25;102494.59;;;15.30;51.44
55456;BME280;63021;52.836;6.376;2023-05-24T10:56:00;102491.66;;;15.42;51.87
55456;BME280;63021;52.836;6.376;2023-05-24T11:01:29;102501.72;;;15.50;51.24
55456;BME280;63021;52.836;6.376;2023-05-24T11:04:29;102507.06;;;15.40;50.97
55456;BME280;63021;52.836;6.376;2023-05-24T11:09:26;102496.28;;;15.21;51.82
55456;BME280;63021;52.836;6.376;2023-05-24T11:11:59;102501.22;;;15.16;50.92
55456;BME280;63021;52.836;6.376;2023-05-24T11:14:26;102495.59;;;15.19;51.60
55456;BME280;63021;52.836;6.376;2023-05-24T11:17:12;102491.78;;;15.31;50.64
55456;BME280;63021;52.836;6.376;2023-05-24T11:19:45;102488.00;;;15.44;51.29
55456;BME280;63021;52.836;6.376;2023-05-24T11:22:13;102497.91;;;15.53;50.35
55456;BME280;63021;52.836;6.376;2023-05-24T11:24:41;102496.34;;;15.50;49.49
55456;BME280;63021;52.836;6.376;2023-05-24T11:27:10;102499.75;;;15.52;50.37
55456;BME280;63021;52.836;6.376;2023-05-24T11:29:42;102503.41;;;15.61;50.60
55456;BME280;63021;52.836;6.376;2023-05-24T11:32:09;102502.72;;;15.59;49.32
55456;BME280;63021;52.836;6.376;2023-05-24T11:34:35;102498.19;;;15.59;49.66
55456;BME280;63021;52.836;6.376;2023-05-24T11:37:01;102491.56;;;15.73;49.22
55456;BME280;63021;52.836;6.376;2023-05-24T11:39:31;102489.06;;;15.82;49.66
55456;BME280;63021;52.836;6.376;2023-05-24T11:41:58;102498.25;;;15.89;49.55
55456;BME280;63021;52.836;6.376;2023-05-24T11:44:24;102495.56;;;15.89;48.10
55456;BME280;63021;52.836;6.376;2023-05-24T11:46:56;102488.34;;;15.80;47.83
55456;BME280;63021;52.836;6.376;2023-05-24T11:49:22;102492.56;;;15.72;47.73
55456;BME280;63021;52.836;6.376;2023-05-24T11:51:48;102500.16;;;15.67;48.18
55456;BME280;63021;52.836;6.376;2023-05-24T11:54:13;102497.63;;;15.66;48.76
55456;BME280;63021;52.836;6.376;2023-05-24T11:56:38;102497.06;;;15.62;48.97
55456;BME280;63021;52.836;6.376;2023-05-24T11:59:22;102504.41;;;15.60;48.78
55456;BME280;63021;52.836;6.376;2023-05-24T12:01:50;102499.03;;;15.60;49.05
55456;BME280;63021;52.836;6.376;2023-05-24T12:04:20;102500.03;;;15.59;49.17
55456;BME280;63021;52.836;6.376;2023-05-24T12:06:46;102501.31;;;15.65;49.63
55456;BME280;63021;52.836;6.376;2023-05-24T12:09:12;102504.28;;;15.71;49.89
55456;BME280;63021;52.836;6.376;2023-05-24T12:11:41;102501.19;;;15.76;49.38
55456;BME280;63021;52.836;6.376;2023-05-24T12:14:14;102505.84;;;15.74;49.02
55456;BME280;63021;52.836;6.376;2023-05-24T12:16:41;102504.56;;;15.68;48.49
55456;BME280;63021;52.836;6.376;2023-05-24T12:19:07;102512.44;;;15.60;49.56
55456;BME280;63021;52.836;6.376;2023-05-24T12:21:32;102508.63;;;15.53;49.79
55456;BME280;63021;52.836;6.376;2023-05-24T12:24:13;102515.81;;;15.42;50.20
55456;BME280;63021;52.836;6.376;2023-05-24T12:26:43;102515.53;;;15.36;50.16
55456;BME280;63021;52.836;6.376;2023-05-24T12:29:10;102515.38;;;15.28;50.20
55456;BME280;63021;52.836;6.376;2023-05-24T12:31:39;102522.13;;;15.22;50.45
55456;BME280;63021;52.836;6.376;2023-05-24T12:34:16;102521.41;;;15.20;51.38
55456;BME280;63021;52.836;6.376;2023-05-24T12:36:42;102518.03;;;15.18;51.38
55456;BME280;63021;52.836;6.376;2023-05-24T12:41:54;102517.19;;;15.17;51.04
55456;BME280;63021;52.836;6.376;2023-05-24T12:44:36;102520.84;;;15.16;51.20
55456;BME280;63021;52.836;6.376;2023-05-24T12:47:04;102520.13;;;15.14;51.26
55456;BME280;63021;52.836;6.376;2023-05-24T12:49:30;102516.59;;;15.14;51.94
55456;BME280;63021;52.836;6.376;2023-05-24T12:51:56;102524.34;;;15.17;51.58
55456;BME280;63021;52.836;6.376;2023-05-24T12:54:24;102519.88;;;15.17;51.38
55456;BME280;63021;52.836;6.376;2023-05-24T12:56:50;102518.16;;;15.16;51.39
55456;BME280;63021;52.836;6.376;2023-05-24T12:59:16;102521.53;;;15.18;51.86
55456;BME280;63021;52.836;6.376;2023-05-24T13:01:42;102529.44;;;15.20;51.47
55456;BME280;63021;52.836;6.376;2023-05-24T13:04:14;102518.72;;;15.20;51.79
55456;BME280;63021;52.836;6.376;2023-05-24T13:06:42;102524.09;;;15.20;51.85
55456;BME280;63021;52.836;6.376;2023-05-24T13:09:08;102523.09;;;15.21;52.06
55456;BME280;63021;52.836;6.376;2023-05-24T13:11:34;102519.59;;;15.20;51.99
55456;BME280;63021;52.836;6.376;2023-05-24T13:14:01;102527.91;;;15.17;51.76
55456;BME280;63021;52.836;6.376;2023-05-24T13:16:27;102523.53;;;15.16;51.84
55456;BME280;63021;52.836;6.376;2023-05-24T13:18:52;102528.06;;;15.16;51.60
55456;BME280;63021;52.836;6.376;2023-05-24T13:21:18;102519.69;;;15.09;51.88
55456;BME280;63021;52.836;6.376;2023-05-24T13:23:43;102531.53;;;15.06;52.18
55456;BME280;63021;52.836;6.376;2023-05-24T13:26:10;102532.50;;;15.05;52.08